createdAt,value
2018-09-22T00:00:07.371Z,0.00
2018-09-22T00:01:07.356Z,0.00
2018-09-22T00:02:07.344Z,0.00
2018-09-22T00:03:07.319Z,0.00
2018-09-22T00:04:07.305Z,0.00
2018-09-22T00:05:07.287Z,0.00
2018-09-22T00:06:07.270Z,0.00
2018-09-22T00:07:07.249Z,0.00
2018-09-22T00:08:07.232Z,0.00
2018-09-22T00:09:07.219Z,0.00
2018-09-22T00:10:07.199Z,0.00
2018-09-22T00:11:07.183Z,0.00
2018-09-22T00:12:07.164Z,0.00
2018-09-22T00:13:07.156Z,0.00
2018-09-22T00:14:07.129Z,0.00
2018-09-22T00:15:07.112Z,0.00
2018-09-22T00:16:07.100Z,0.00
2018-09-22T00:17:07.081Z,0.00
2018-09-22T00:18:07.061Z,0.00
2018-09-22T00:19:07.043Z,0.00
2018-09-22T00:20:07.026Z,0.00
2018-09-22T00:21:07.013Z,0.00
2018-09-22T00:22:06.994Z,0.00
2018-09-22T00:23:06.977Z,0.00
2018-09-22T00:24:06.959Z,0.00
2018-09-22T00:25:06.945Z,0.00
2018-09-22T00:26:06.925Z,0.00
2018-09-22T00:27:06.962Z,0.00
2018-09-22T00:28:06.893Z,0.00
2018-09-22T00:29:06.878Z,0.00
2018-09-22T00:30:06.863Z,0.00
2018-09-22T00:31:06.839Z,0.00
2018-09-22T00:32:06.822Z,0.00
2018-09-22T00:33:06.804Z,0.00
2018-09-22T00:34:06.790Z,0.00
2018-09-22T00:35:06.769Z,0.00
2018-09-22T00:36:06.750Z,0.00
2018-09-22T00:37:06.737Z,0.00
2018-09-22T00:38:06.716Z,0.00
2018-09-22T00:39:06.700Z,0.00
2018-09-22T00:40:06.681Z,0.00
2018-09-22T00:41:06.665Z,0.00
2018-09-22T00:42:06.647Z,0.00
2018-09-22T00:43:06.630Z,0.00
2018-09-22T00:44:06.614Z,0.00
2018-09-22T00:45:06.595Z,0.00
2018-09-22T00:46:06.579Z,0.00
2018-09-22T00:47:06.560Z,0.00
2018-09-22T00:48:06.550Z,0.00
2018-09-22T00:49:06.526Z,0.00
2018-09-22T00:50:06.512Z,0.00
2018-09-22T00:51:06.496Z,0.00
2018-09-22T00:52:06.478Z,0.00
2018-09-22T00:53:06.460Z,0.00
2018-09-22T00:54:06.442Z,0.00
2018-09-22T00:55:06.424Z,0.00
2018-09-22T00:56:06.407Z,0.00
2018-09-22T00:57:06.391Z,0.00
2018-09-22T00:58:06.374Z,0.00
2018-09-22T00:59:06.356Z,0.00
2018-09-22T01:00:06.346Z,0.00
2018-09-22T01:01:06.320Z,0.00
2018-09-22T01:02:06.325Z,0.00
2018-09-22T01:03:06.293Z,0.00
2018-09-22T01:04:06.266Z,0.00
2018-09-22T01:05:06.259Z,0.00
2018-09-22T01:06:06.236Z,0.00
2018-09-22T01:07:06.217Z,0.00
2018-09-22T01:08:06.203Z,0.00
2018-09-22T01:09:06.179Z,0.00
2018-09-22T01:10:06.164Z,0.00
2018-09-22T01:11:06.148Z,0.00
2018-09-22T01:12:06.125Z,0.00
2018-09-22T01:13:06.114Z,0.00
2018-09-22T01:14:06.096Z,0.00
2018-09-22T01:15:06.076Z,0.00
2018-09-22T01:16:06.059Z,0.00
2018-09-22T01:17:06.048Z,0.00
2018-09-22T01:18:06.035Z,0.00
2018-09-22T01:19:06.007Z,0.00
2018-09-22T01:20:05.992Z,0.00
2018-09-22T01:21:05.970Z,0.00
2018-09-22T01:22:05.956Z,0.00
2018-09-22T01:23:05.936Z,0.00
2018-09-22T01:24:05.925Z,0.00
2018-09-22T01:25:05.905Z,0.00
2018-09-22T01:26:05.897Z,0.00
2018-09-22T01:27:05.869Z,0.00
2018-09-22T01:28:05.851Z,0.00
2018-09-22T01:29:05.837Z,0.00
2018-09-22T01:30:05.817Z,0.00
2018-09-22T01:31:05.800Z,0.00
2018-09-22T01:32:05.783Z,0.00
2018-09-22T01:33:05.765Z,0.00
2018-09-22T01:34:05.749Z,0.00
2018-09-22T01:35:05.734Z,0.00
2018-09-22T01:36:05.720Z,0.00
2018-09-22T01:37:05.698Z,0.00
2018-09-22T01:38:05.681Z,0.00
2018-09-22T01:39:05.663Z,0.00
2018-09-22T01:40:05.642Z,0.00
2018-09-22T01:41:05.629Z,0.00
2018-09-22T01:42:05.615Z,0.00
2018-09-22T01:43:05.591Z,0.00
2018-09-22T01:44:05.573Z,0.00
2018-09-22T01:45:05.560Z,0.00
2018-09-22T01:46:05.539Z,0.00
2018-09-22T01:47:05.522Z,0.00
2018-09-22T01:48:05.509Z,0.00
2018-09-22T01:49:05.490Z,0.00
2018-09-22T01:50:05.469Z,0.00
2018-09-22T01:51:05.457Z,0.00
2018-09-22T01:52:05.438Z,0.00
2018-09-22T01:53:05.417Z,0.00
2018-09-22T01:54:05.405Z,0.00
2018-09-22T01:55:05.385Z,0.00
2018-09-22T01:56:05.366Z,0.00
2018-09-22T01:57:05.350Z,0.00
2018-09-22T01:58:05.334Z,0.00
2018-09-22T01:59:05.317Z,0.00
2018-09-22T02:00:05.299Z,0.00
2018-09-22T02:01:05.281Z,0.00
2018-09-22T02:02:05.263Z,0.00
2018-09-22T02:03:05.246Z,0.00
2018-09-22T02:04:05.230Z,0.00
2018-09-22T02:05:05.215Z,0.00
2018-09-22T02:06:05.196Z,0.00
2018-09-22T02:07:05.176Z,0.00
2018-09-22T02:08:05.161Z,0.00
2018-09-22T02:09:05.148Z,0.00
2018-09-22T02:10:05.125Z,0.00
2018-09-22T02:11:05.109Z,0.00
2018-09-22T02:12:05.089Z,0.00
2018-09-22T02:13:05.086Z,0.00
2018-09-22T02:14:05.058Z,0.00
2018-09-22T02:15:05.044Z,0.00
2018-09-22T02:16:05.024Z,0.00
2018-09-22T02:17:05.003Z,0.00
2018-09-22T02:18:04.988Z,0.00
2018-09-22T02:19:04.969Z,0.00
2018-09-22T02:20:04.952Z,0.00
2018-09-22T02:21:04.933Z,0.00
2018-09-22T02:22:04.917Z,0.00
2018-09-22T02:23:04.899Z,0.00
2018-09-22T02:24:04.882Z,0.00
2018-09-22T02:25:04.866Z,0.00
2018-09-22T02:26:04.844Z,0.00
2018-09-22T02:27:04.830Z,0.00
2018-09-22T02:28:04.812Z,0.00
2018-09-22T02:29:04.792Z,0.00
2018-09-22T02:30:04.782Z,0.00
2018-09-22T02:31:04.759Z,0.00
2018-09-22T02:32:04.748Z,0.00
2018-09-22T02:33:04.724Z,0.00
2018-09-22T02:34:04.711Z,0.00
2018-09-22T02:35:04.689Z,0.00
2018-09-22T02:36:04.677Z,0.00
2018-09-22T02:37:04.654Z,0.00
2018-09-22T02:38:04.638Z,0.00
2018-09-22T02:39:04.618Z,0.00
2018-09-22T02:40:04.603Z,0.00
2018-09-22T02:41:04.584Z,0.00
2018-09-22T02:42:04.573Z,0.00
2018-09-22T02:43:04.550Z,0.00
2018-09-22T02:44:04.532Z,0.00
2018-09-22T02:45:04.515Z,0.00
2018-09-22T02:46:04.498Z,0.00
2018-09-22T02:47:04.483Z,0.00
2018-09-22T02:48:04.463Z,0.00
2018-09-22T02:49:04.444Z,0.00
2018-09-22T02:50:04.429Z,0.00
2018-09-22T02:51:04.410Z,0.00
2018-09-22T02:52:04.392Z,0.00
2018-09-22T02:53:04.383Z,0.00
2018-09-22T02:54:04.361Z,0.00
2018-09-22T02:55:04.343Z,0.00
2018-09-22T02:56:04.325Z,0.00
2018-09-22T02:57:04.308Z,0.00
2018-09-22T02:58:04.288Z,0.00
2018-09-22T02:59:04.269Z,0.00
2018-09-22T03:00:04.260Z,0.00
2018-09-22T03:01:04.236Z,0.00
2018-09-22T03:02:04.223Z,0.00
2018-09-22T03:03:04.202Z,0.00
2018-09-22T03:04:04.183Z,0.00
2018-09-22T03:05:04.167Z,0.00
2018-09-22T03:06:04.151Z,0.00
2018-09-22T03:07:04.134Z,0.00
2018-09-22T03:08:04.114Z,0.00
2018-09-22T03:09:04.097Z,0.00
2018-09-22T03:10:04.118Z,0.00
2018-09-22T03:11:04.062Z,0.00
2018-09-22T03:12:04.044Z,0.00
2018-09-22T03:13:04.024Z,0.00
2018-09-22T03:14:04.008Z,0.00
2018-09-22T03:15:03.991Z,0.00
2018-09-22T03:16:03.976Z,0.00
2018-09-22T03:17:03.955Z,0.00
2018-09-22T03:18:03.938Z,0.00
2018-09-22T03:19:03.927Z,0.00
2018-09-22T03:20:03.908Z,0.00
2018-09-22T03:21:03.885Z,0.00
2018-09-22T03:22:03.867Z,0.00
2018-09-22T03:23:03.854Z,0.00
2018-09-22T03:24:03.837Z,0.00
2018-09-22T03:25:03.815Z,0.00
2018-09-22T03:26:03.797Z,0.00
2018-09-22T03:27:03.780Z,0.00
2018-09-22T03:28:03.766Z,0.00
2018-09-22T03:29:03.745Z,0.00
2018-09-22T03:30:03.729Z,0.00
2018-09-22T03:31:03.708Z,0.00
2018-09-22T03:32:03.695Z,0.00
2018-09-22T03:33:03.674Z,0.00
2018-09-22T03:34:03.656Z,0.00
2018-09-22T03:35:03.640Z,0.00
2018-09-22T03:36:03.622Z,0.00
2018-09-22T03:37:03.604Z,0.00
2018-09-22T03:38:03.585Z,0.00
2018-09-22T03:39:03.574Z,0.00
2018-09-22T03:40:03.553Z,0.00
2018-09-22T03:41:03.536Z,0.00
2018-09-22T03:42:03.518Z,0.00
2018-09-22T03:43:03.500Z,0.00
2018-09-22T03:44:03.482Z,0.00
2018-09-22T03:45:03.465Z,0.00
2018-09-22T03:46:03.447Z,0.00
2018-09-22T03:47:03.429Z,0.00
2018-09-22T03:48:03.413Z,0.00
2018-09-22T03:49:03.394Z,0.00
2018-09-22T03:50:03.384Z,0.00
2018-09-22T03:51:03.362Z,0.00
2018-09-22T03:52:03.345Z,0.00
2018-09-22T03:53:03.324Z,0.00
2018-09-22T03:54:03.305Z,0.00
2018-09-22T03:55:03.292Z,0.00
2018-09-22T03:56:03.288Z,0.00
2018-09-22T03:57:03.253Z,0.00
2018-09-22T03:58:03.247Z,0.00
2018-09-22T03:59:03.219Z,0.00
2018-09-22T04:00:03.206Z,0.00
2018-09-22T04:01:03.185Z,0.00
2018-09-22T04:02:03.175Z,0.00
2018-09-22T04:03:03.155Z,0.00
2018-09-22T04:04:03.137Z,0.00
2018-09-22T04:05:03.114Z,0.00
2018-09-22T04:06:03.097Z,0.00
2018-09-22T04:07:03.078Z,0.00
2018-09-22T04:08:03.062Z,0.00
2018-09-22T04:09:03.042Z,0.00
2018-09-22T04:10:03.027Z,0.00
2018-09-22T04:11:03.011Z,0.00
2018-09-22T04:12:02.995Z,0.00
2018-09-22T04:13:02.975Z,0.00
2018-09-22T04:14:02.955Z,0.00
2018-09-22T04:15:02.950Z,0.00
2018-09-22T04:16:02.925Z,0.00
2018-09-22T04:17:02.904Z,0.00
2018-09-22T04:18:02.886Z,0.00
2018-09-22T04:19:02.873Z,0.00
2018-09-22T04:20:02.861Z,0.00
2018-09-22T04:21:02.857Z,0.00
2018-09-22T04:22:02.820Z,0.00
2018-09-22T04:23:02.800Z,0.00
2018-09-22T04:24:02.782Z,0.00
2018-09-22T04:25:02.765Z,0.00
2018-09-22T04:26:02.748Z,0.00
2018-09-22T04:27:02.747Z,0.00
2018-09-22T04:28:02.714Z,0.00
2018-09-22T04:29:02.693Z,0.00
2018-09-22T04:30:02.679Z,0.00
2018-09-22T04:31:02.661Z,0.00
2018-09-22T04:32:02.646Z,0.00
2018-09-22T04:33:02.635Z,0.00
2018-09-22T04:34:02.608Z,0.00
2018-09-22T04:35:02.605Z,0.00
2018-09-22T04:36:02.588Z,0.00
2018-09-22T04:37:02.558Z,0.00
2018-09-22T04:38:02.541Z,0.00
2018-09-22T04:39:02.522Z,0.00
2018-09-22T04:40:02.503Z,0.00
2018-09-22T04:41:02.527Z,0.00
2018-09-22T04:42:02.469Z,0.00
2018-09-22T04:43:02.450Z,0.00
2018-09-22T04:44:02.438Z,0.00
2018-09-22T04:45:02.415Z,0.00
2018-09-22T04:46:02.404Z,0.00
2018-09-22T04:47:02.382Z,0.00
2018-09-22T04:48:02.372Z,0.00
2018-09-22T04:49:02.345Z,0.00
2018-09-22T04:50:02.332Z,0.00
2018-09-22T04:51:02.317Z,0.00
2018-09-22T04:52:02.298Z,0.00
2018-09-22T04:53:02.276Z,0.00
2018-09-22T04:54:02.263Z,0.00
2018-09-22T04:55:02.245Z,0.00
2018-09-22T04:56:02.225Z,0.00
2018-09-22T04:57:02.213Z,0.00
2018-09-22T04:58:02.193Z,0.00
2018-09-22T04:59:02.172Z,0.00
2018-09-22T05:00:02.157Z,0.00
2018-09-22T05:01:02.137Z,0.00
2018-09-22T05:02:02.118Z,0.00
2018-09-22T05:03:02.123Z,0.00
2018-09-22T05:04:02.085Z,0.00
2018-09-22T05:05:02.068Z,0.00
2018-09-22T05:06:02.053Z,0.00
2018-09-22T05:07:02.035Z,0.00
2018-09-22T05:08:02.015Z,0.00
2018-09-22T05:09:02.012Z,0.00
2018-09-22T05:10:01.987Z,0.00
2018-09-22T05:11:01.964Z,0.00
2018-09-22T05:12:01.948Z,0.00
2018-09-22T05:13:01.927Z,0.00
2018-09-22T05:14:01.912Z,0.00
2018-09-22T05:15:01.892Z,0.00
2018-09-22T05:16:01.875Z,0.00
2018-09-22T05:17:01.868Z,0.00
2018-09-22T05:18:01.894Z,0.00
2018-09-22T05:19:01.823Z,5.63
2018-09-22T05:20:01.806Z,5.63
2018-09-22T05:21:01.786Z,5.63
2018-09-22T05:22:01.771Z,5.63
2018-09-22T05:23:01.758Z,5.63
2018-09-22T05:24:01.743Z,5.63
2018-09-22T05:25:01.731Z,5.63
2018-09-22T05:26:01.704Z,5.63
2018-09-22T05:27:01.685Z,5.63
2018-09-22T05:28:01.671Z,11.25
2018-09-22T05:29:01.648Z,11.25
2018-09-22T05:30:01.634Z,11.25
2018-09-22T05:31:01.617Z,11.25
2018-09-22T05:32:01.600Z,11.25
2018-09-22T05:33:01.580Z,11.25
2018-09-22T05:34:01.657Z,16.88
2018-09-22T05:35:01.548Z,16.88
2018-09-22T05:36:01.533Z,16.88
2018-09-22T05:37:01.511Z,16.88
2018-09-22T05:38:01.494Z,16.88
2018-09-22T05:39:01.477Z,16.88
2018-09-22T05:40:01.460Z,16.88
2018-09-22T05:41:01.442Z,16.88
2018-09-22T05:42:01.429Z,22.50
2018-09-22T05:43:01.410Z,22.50
2018-09-22T05:44:01.390Z,16.88
2018-09-22T05:45:01.373Z,16.88
2018-09-22T05:46:01.371Z,16.88
2018-09-22T05:47:01.337Z,16.88
2018-09-22T05:48:01.318Z,22.50
2018-09-22T05:49:01.300Z,16.88
2018-09-22T05:50:01.291Z,22.50
2018-09-22T05:51:01.266Z,22.50
2018-09-22T05:52:01.256Z,28.13
2018-09-22T05:53:01.231Z,28.13
2018-09-22T05:54:01.213Z,28.13
2018-09-22T05:55:01.197Z,22.50
2018-09-22T05:56:01.178Z,22.50
2018-09-22T05:57:01.162Z,28.13
2018-09-22T05:58:01.155Z,28.13
2018-09-22T05:59:01.133Z,33.75
2018-09-22T06:00:01.115Z,33.75
2018-09-22T06:01:01.099Z,33.75
2018-09-22T06:02:01.077Z,33.75
2018-09-22T06:03:01.060Z,33.75
2018-09-22T06:04:01.117Z,33.75
2018-09-22T06:05:01.025Z,33.75
2018-09-22T06:06:01.022Z,33.75
2018-09-22T06:07:00.993Z,39.38
2018-09-22T06:08:00.973Z,39.38
2018-09-22T06:09:00.957Z,45.00
2018-09-22T06:10:00.946Z,45.00
2018-09-22T06:11:00.923Z,45.00
2018-09-22T06:12:00.904Z,45.00
2018-09-22T06:13:00.886Z,45.00
2018-09-22T06:14:00.869Z,45.00
2018-09-22T06:15:00.852Z,45.00
2018-09-22T06:16:00.837Z,45.00
2018-09-22T06:17:00.821Z,45.00
2018-09-22T06:18:00.801Z,45.00
2018-09-22T06:19:00.785Z,50.63
2018-09-22T06:20:00.767Z,50.63
2018-09-22T06:21:00.751Z,50.63
2018-09-22T06:22:00.738Z,50.63
2018-09-22T06:23:00.725Z,56.25
2018-09-22T06:24:00.703Z,61.88
2018-09-22T06:25:00.680Z,67.50
2018-09-22T06:26:00.676Z,73.13
2018-09-22T06:27:00.653Z,78.75
2018-09-22T06:28:00.635Z,84.38
2018-09-22T06:29:00.620Z,84.38
2018-09-22T06:30:00.600Z,90.00
2018-09-22T06:31:00.583Z,90.00
2018-09-22T06:32:00.567Z,90.00
2018-09-22T06:33:00.550Z,90.00
2018-09-22T06:34:00.531Z,90.00
2018-09-22T06:35:00.522Z,90.00
2018-09-22T06:36:00.505Z,95.63
2018-09-22T06:37:00.485Z,101.25
2018-09-22T06:38:00.469Z,106.88
2018-09-22T06:39:00.461Z,112.50
2018-09-22T06:40:00.433Z,112.50
2018-09-22T06:41:00.421Z,112.50
2018-09-22T06:42:00.403Z,106.88
2018-09-22T06:43:00.383Z,106.88
2018-09-22T06:44:00.369Z,112.50
2018-09-22T06:45:00.352Z,112.50
2018-09-22T06:46:00.334Z,101.25
2018-09-22T06:47:00.317Z,101.25
2018-09-22T06:48:00.307Z,101.25
2018-09-22T06:49:00.294Z,95.63
2018-09-22T06:50:00.282Z,90.00
2018-09-22T06:51:00.254Z,84.38
2018-09-22T06:52:00.238Z,84.38
2018-09-22T06:53:00.224Z,84.38
2018-09-22T06:54:00.206Z,78.75
2018-09-22T06:55:00.237Z,78.75
2018-09-22T06:56:00.172Z,84.38
2018-09-22T06:57:00.159Z,90.00
2018-09-22T06:58:00.139Z,90.00
2018-09-22T06:59:00.127Z,95.63
2018-09-22T07:00:00.110Z,101.25
2018-09-22T07:01:00.095Z,106.88
2018-09-22T07:02:00.080Z,106.88
2018-09-22T07:03:00.059Z,118.13
2018-09-22T07:04:00.044Z,123.75
2018-09-22T07:05:00.031Z,129.38
2018-09-22T07:06:00.018Z,146.25
2018-09-22T07:06:59.997Z,157.50
2018-09-22T07:07:59.978Z,168.75
2018-09-22T07:08:59.967Z,191.25
2018-09-22T07:09:59.956Z,264.38
2018-09-22T07:10:59.931Z,258.75
2018-09-22T07:11:59.917Z,320.63
2018-09-22T07:12:59.900Z,320.63
2018-09-22T07:13:59.889Z,360.00
2018-09-22T07:14:59.870Z,343.13
2018-09-22T07:15:59.859Z,354.38
2018-09-22T07:16:59.839Z,343.13
2018-09-22T07:17:59.824Z,303.75
2018-09-22T07:18:59.808Z,348.75
2018-09-22T07:19:59.794Z,410.63
2018-09-22T07:20:59.785Z,399.38
2018-09-22T07:21:59.771Z,405.00
2018-09-22T07:22:59.750Z,489.38
2018-09-22T07:23:59.739Z,450.00
2018-09-22T07:24:59.729Z,489.38
2018-09-22T07:25:59.711Z,438.75
2018-09-22T07:26:59.699Z,444.38
2018-09-22T07:27:59.693Z,500.63
2018-09-22T07:28:59.672Z,466.88
2018-09-22T07:29:59.654Z,478.13
2018-09-22T07:30:59.671Z,478.13
2018-09-22T07:31:59.635Z,461.25
2018-09-22T07:32:59.619Z,326.25
2018-09-22T07:33:59.600Z,466.88
2018-09-22T07:34:59.588Z,489.38
2018-09-22T07:35:59.583Z,281.25
2018-09-22T07:36:59.563Z,208.13
2018-09-22T07:37:59.550Z,185.63
2018-09-22T07:38:59.536Z,213.75
2018-09-22T07:39:59.522Z,180.00
2018-09-22T07:40:59.512Z,191.25
2018-09-22T07:41:59.501Z,241.88
2018-09-22T07:42:59.489Z,326.25
2018-09-22T07:43:59.471Z,393.75
2018-09-22T07:44:59.464Z,455.63
2018-09-22T07:45:59.445Z,483.75
2018-09-22T07:46:59.429Z,450.00
2018-09-22T07:47:59.419Z,489.38
2018-09-22T07:48:59.409Z,534.38
2018-09-22T07:49:59.392Z,568.13
2018-09-22T07:50:59.380Z,697.50
2018-09-22T07:51:59.368Z,765.00
2018-09-22T07:52:59.357Z,956.25
2018-09-22T07:53:59.342Z,826.88
2018-09-22T07:54:59.337Z,703.13
2018-09-22T07:55:59.371Z,888.75
2018-09-22T07:56:59.328Z,855.00
2018-09-22T07:57:59.303Z,1001.25
2018-09-22T07:58:59.303Z,770.63
2018-09-22T07:59:59.283Z,360.00
2018-09-22T08:00:59.274Z,686.25
2018-09-22T08:01:59.265Z,303.75
2018-09-22T08:02:59.249Z,776.25
2018-09-22T08:03:59.238Z,427.50
2018-09-22T08:04:59.236Z,191.25
2018-09-22T08:05:59.228Z,180.00
2018-09-22T08:06:59.207Z,298.13
2018-09-22T08:07:59.200Z,765.00
2018-09-22T08:08:59.184Z,900.00
2018-09-22T08:09:59.181Z,635.63
2018-09-22T08:10:59.170Z,1068.75
2018-09-22T08:11:59.156Z,731.25
2018-09-22T08:12:59.150Z,832.50
2018-09-22T08:13:59.137Z,950.63
2018-09-22T08:14:59.134Z,1203.75
2018-09-22T08:15:59.126Z,1170.00
2018-09-22T08:16:59.105Z,1125.00
2018-09-22T08:17:59.100Z,770.63
2018-09-22T08:18:59.102Z,736.88
2018-09-22T08:19:59.078Z,939.38
2018-09-22T08:20:59.073Z,736.88
2018-09-22T08:21:59.068Z,354.38
2018-09-22T08:22:59.056Z,388.13
2018-09-22T08:23:59.049Z,523.13
2018-09-22T08:24:59.038Z,208.13
2018-09-22T08:25:59.029Z,596.25
2018-09-22T08:26:59.018Z,495.00
2018-09-22T08:27:59.015Z,585.00
2018-09-22T08:28:59.002Z,810.00
2018-09-22T08:29:58.988Z,753.75
2018-09-22T08:30:58.980Z,590.63
2018-09-22T08:31:58.997Z,680.63
2018-09-22T08:32:59.014Z,826.88
2018-09-22T08:33:58.954Z,826.88
2018-09-22T08:34:58.947Z,770.63
2018-09-22T08:35:58.970Z,894.38
2018-09-22T08:36:59.168Z,860.63
2018-09-22T08:37:58.914Z,849.38
2018-09-22T08:38:58.920Z,911.25
2018-09-22T08:39:58.900Z,1063.13
2018-09-22T08:40:58.890Z,1220.63
2018-09-22T08:41:58.880Z,1378.13
2018-09-22T08:42:58.877Z,1406.25
2018-09-22T08:43:58.963Z,1260.00
2018-09-22T08:44:58.921Z,1344.38
2018-09-22T08:45:58.854Z,1479.38
2018-09-22T08:46:58.848Z,1428.75
2018-09-22T08:47:58.842Z,1580.63
2018-09-22T08:48:58.838Z,1603.13
2018-09-22T08:49:58.841Z,1558.13
2018-09-22T08:50:58.880Z,1496.25
2018-09-22T08:51:58.823Z,1631.25
2018-09-22T08:52:58.816Z,1490.63
2018-09-22T08:53:58.818Z,483.75
2018-09-22T08:54:58.810Z,545.63
2018-09-22T08:55:58.811Z,731.25
2018-09-22T08:56:58.800Z,933.75
2018-09-22T08:57:58.876Z,1282.50
2018-09-22T08:58:58.792Z,950.63
2018-09-22T08:59:58.785Z,1085.63
2018-09-22T09:00:58.782Z,601.88
2018-09-22T09:01:58.773Z,298.13
2018-09-22T09:02:58.768Z,815.63
2018-09-22T09:03:58.766Z,798.75
2018-09-22T09:04:58.807Z,815.63
2018-09-22T09:05:58.802Z,461.25
2018-09-22T09:06:58.747Z,303.75
2018-09-22T09:07:58.741Z,303.75
2018-09-22T09:08:58.731Z,315.00
2018-09-22T09:09:58.724Z,315.00
2018-09-22T09:10:58.715Z,275.63
2018-09-22T09:11:58.708Z,298.13
2018-09-22T09:12:58.703Z,309.38
2018-09-22T09:13:58.709Z,320.63
2018-09-22T09:14:58.679Z,241.88
2018-09-22T09:15:58.672Z,174.38
2018-09-22T09:16:58.696Z,196.88
2018-09-22T09:17:58.657Z,230.63
2018-09-22T09:18:58.644Z,241.88
2018-09-22T09:19:58.635Z,270.00
2018-09-22T09:20:58.624Z,286.88
2018-09-22T09:21:58.616Z,303.75
2018-09-22T09:22:58.600Z,315.00
2018-09-22T09:23:58.594Z,292.50
2018-09-22T09:24:58.583Z,298.13
2018-09-22T09:25:58.570Z,270.00
2018-09-22T09:26:58.562Z,270.00
2018-09-22T09:27:58.551Z,253.13
2018-09-22T09:28:58.538Z,247.50
2018-09-22T09:29:58.533Z,247.50
2018-09-22T09:30:58.517Z,236.25
2018-09-22T09:31:58.509Z,219.38
2018-09-22T09:32:58.499Z,174.38
2018-09-22T09:33:58.489Z,219.38
2018-09-22T09:34:58.471Z,253.13
2018-09-22T09:35:58.459Z,219.38
2018-09-22T09:36:58.447Z,196.88
2018-09-22T09:37:58.436Z,191.25
2018-09-22T09:38:58.433Z,219.38
2018-09-22T09:39:58.414Z,168.75
2018-09-22T09:40:58.401Z,174.38
2018-09-22T09:41:58.394Z,264.38
2018-09-22T09:42:58.378Z,241.88
2018-09-22T09:43:58.373Z,202.50
2018-09-22T09:44:58.358Z,230.63
2018-09-22T09:45:58.342Z,174.38
2018-09-22T09:46:58.345Z,180.00
2018-09-22T09:47:58.322Z,163.13
2018-09-22T09:48:58.315Z,140.63
2018-09-22T09:49:58.296Z,135.00
2018-09-22T09:50:58.285Z,146.25
2018-09-22T09:51:58.273Z,146.25
2018-09-22T09:52:58.260Z,151.88
2018-09-22T09:53:58.256Z,157.50
2018-09-22T09:54:58.322Z,157.50
2018-09-22T09:55:58.227Z,163.13
2018-09-22T09:56:58.217Z,168.75
2018-09-22T09:57:58.205Z,163.13
2018-09-22T09:58:58.195Z,157.50
2018-09-22T09:59:58.179Z,157.50
2018-09-22T10:00:58.177Z,157.50
2018-09-22T10:01:58.161Z,157.50
2018-09-22T10:02:58.142Z,157.50
2018-09-22T10:03:58.138Z,163.13
2018-09-22T10:04:58.117Z,168.75
2018-09-22T10:05:58.107Z,168.75
2018-09-22T10:06:58.091Z,168.75
2018-09-22T10:07:58.077Z,163.13
2018-09-22T10:08:58.065Z,180.00
2018-09-22T10:09:58.067Z,191.25
2018-09-22T10:10:58.046Z,225.00
2018-09-22T10:11:58.032Z,258.75
2018-09-22T10:12:58.011Z,264.38
2018-09-22T10:13:57.998Z,292.50
2018-09-22T10:14:57.989Z,292.50
2018-09-22T10:15:57.977Z,286.88
2018-09-22T10:16:57.963Z,286.88
2018-09-22T10:17:57.953Z,275.63
2018-09-22T10:18:57.957Z,264.38
2018-09-22T10:19:57.934Z,241.88
2018-09-22T10:21:00.946Z,225.00
2018-09-22T10:21:57.902Z,230.63
2018-09-22T10:22:57.891Z,213.75
2018-09-22T10:23:57.878Z,213.75
2018-09-22T10:24:57.867Z,202.50
2018-09-22T10:25:57.859Z,219.38
2018-09-22T10:26:57.839Z,230.63
2018-09-22T10:27:57.864Z,241.88
2018-09-22T10:28:57.902Z,253.13
2018-09-22T10:29:57.800Z,258.75
2018-09-22T10:30:57.792Z,270.00
2018-09-22T10:31:57.780Z,270.00
2018-09-22T10:32:57.766Z,286.88
2018-09-22T10:33:57.756Z,281.25
2018-09-22T10:34:57.745Z,230.63
2018-09-22T10:35:57.744Z,219.38
2018-09-22T10:36:57.732Z,241.88
2018-09-22T10:37:57.706Z,241.88
2018-09-22T10:38:57.693Z,225.00
2018-09-22T10:39:57.685Z,225.00
2018-09-22T10:40:57.668Z,208.13
2018-09-22T10:41:57.665Z,196.88
2018-09-22T10:42:57.659Z,180.00
2018-09-22T10:43:57.643Z,163.13
2018-09-22T10:44:57.630Z,168.75
2018-09-22T10:45:57.616Z,180.00
2018-09-22T10:46:57.599Z,168.75
2018-09-22T10:47:57.587Z,163.13
2018-09-22T10:48:57.575Z,157.50
2018-09-22T10:49:57.564Z,157.50
2018-09-22T10:50:57.556Z,140.63
2018-09-22T10:51:57.540Z,135.00
2018-09-22T10:52:57.590Z,135.00
2018-09-22T10:53:57.517Z,140.63
2018-09-22T10:54:57.503Z,140.63
2018-09-22T10:55:57.490Z,140.63
2018-09-22T10:56:57.475Z,157.50
2018-09-22T10:57:57.468Z,163.13
2018-09-22T10:58:57.455Z,174.38
2018-09-22T10:59:57.441Z,191.25
2018-09-22T11:00:57.426Z,191.25
2018-09-22T11:01:57.412Z,185.63
2018-09-22T11:02:57.410Z,185.63
2018-09-22T11:03:57.390Z,185.63
2018-09-22T11:04:57.375Z,185.63
2018-09-22T11:05:57.366Z,180.00
2018-09-22T11:06:57.360Z,174.38
2018-09-22T11:07:57.345Z,174.38
2018-09-22T11:08:57.325Z,168.75
2018-09-22T11:09:57.321Z,174.38
2018-09-22T11:10:57.302Z,174.38
2018-09-22T11:11:57.293Z,196.88
2018-09-22T11:12:57.276Z,196.88
2018-09-22T11:13:57.265Z,208.13
2018-09-22T11:14:57.255Z,208.13
2018-09-22T11:15:57.243Z,196.88
2018-09-22T11:16:57.227Z,185.63
2018-09-22T11:17:57.220Z,180.00
2018-09-22T11:18:57.203Z,174.38
2018-09-22T11:19:57.245Z,174.38
2018-09-22T11:20:57.180Z,163.13
2018-09-22T11:21:57.168Z,157.50
2018-09-22T11:22:57.159Z,146.25
2018-09-22T11:23:57.141Z,140.63
2018-09-22T11:24:57.136Z,123.75
2018-09-22T11:25:57.119Z,112.50
2018-09-22T11:26:57.113Z,106.88
2018-09-22T11:27:57.093Z,106.88
2018-09-22T11:28:57.080Z,112.50
2018-09-22T11:29:57.066Z,118.13
2018-09-22T11:30:57.054Z,129.38
2018-09-22T11:31:57.045Z,140.63
2018-09-22T11:32:57.034Z,140.63
2018-09-22T11:33:57.019Z,146.25
2018-09-22T11:34:57.016Z,140.63
2018-09-22T11:35:57.005Z,135.00
2018-09-22T11:36:56.985Z,123.75
2018-09-22T11:37:56.970Z,118.13
2018-09-22T11:38:56.955Z,112.50
2018-09-22T11:39:56.945Z,106.88
2018-09-22T11:40:56.931Z,106.88
2018-09-22T11:41:56.926Z,106.88
2018-09-22T11:42:56.908Z,106.88
2018-09-22T11:43:56.891Z,112.50
2018-09-22T11:44:56.882Z,129.38
2018-09-22T11:45:56.866Z,135.00
2018-09-22T11:46:56.866Z,146.25
2018-09-22T11:47:56.846Z,151.88
2018-09-22T11:48:56.830Z,163.13
2018-09-22T11:49:56.817Z,174.38
2018-09-22T11:50:56.807Z,180.00
2018-09-22T11:51:56.793Z,180.00
2018-09-22T11:52:56.786Z,168.75
2018-09-22T11:53:56.764Z,168.75
2018-09-22T11:54:56.765Z,157.50
2018-09-22T11:55:56.741Z,151.88
2018-09-22T11:56:56.731Z,151.88
2018-09-22T11:57:56.726Z,146.25
2018-09-22T11:58:56.705Z,151.88
2018-09-22T11:59:56.690Z,157.50
2018-09-22T12:00:56.685Z,168.75
2018-09-22T12:01:56.720Z,163.13
2018-09-22T12:02:56.655Z,174.38
2018-09-22T12:03:56.642Z,185.63
2018-09-22T12:04:56.634Z,185.63
2018-09-22T12:05:56.719Z,202.50
2018-09-22T12:06:56.607Z,202.50
2018-09-22T12:07:56.594Z,174.38
2018-09-22T12:08:56.585Z,168.75
2018-09-22T12:09:56.564Z,163.13
2018-09-22T12:10:56.555Z,163.13
2018-09-22T12:11:56.549Z,157.50
2018-09-22T12:12:56.525Z,146.25
2018-09-22T12:13:56.531Z,146.25
2018-09-22T12:14:56.507Z,146.25
2018-09-22T12:15:56.489Z,151.88
2018-09-22T12:16:56.475Z,146.25
2018-09-22T12:17:56.480Z,146.25
2018-09-22T12:18:56.449Z,151.88
2018-09-22T12:19:56.447Z,151.88
2018-09-22T12:20:56.430Z,157.50
2018-09-22T12:21:56.412Z,157.50
2018-09-22T12:22:56.408Z,151.88
2018-09-22T12:23:56.389Z,157.50
2018-09-22T12:24:56.382Z,151.88
2018-09-22T12:25:56.382Z,146.25
2018-09-22T12:26:56.354Z,146.25
2018-09-22T12:27:56.346Z,140.63
2018-09-22T12:28:56.331Z,135.00
2018-09-22T12:29:56.312Z,129.38
2018-09-22T12:30:56.298Z,123.75
2018-09-22T12:31:56.408Z,112.50
2018-09-22T12:32:56.275Z,106.88
2018-09-22T12:33:56.260Z,101.25
2018-09-22T12:34:56.248Z,95.63
2018-09-22T12:35:56.242Z,90.00
2018-09-22T12:36:56.219Z,84.38
2018-09-22T12:37:56.214Z,73.13
2018-09-22T12:38:56.196Z,61.88
2018-09-22T12:39:56.180Z,56.25
2018-09-22T12:40:56.169Z,61.88
2018-09-22T12:41:56.164Z,73.13
2018-09-22T12:42:56.142Z,78.75
2018-09-22T12:43:56.131Z,73.13
2018-09-22T12:44:56.128Z,67.50
2018-09-22T12:45:56.141Z,67.50
2018-09-22T12:46:56.089Z,73.13
2018-09-22T12:47:56.076Z,73.13
2018-09-22T12:48:56.067Z,67.50
2018-09-22T12:49:56.052Z,61.88
2018-09-22T12:51:56.031Z,67.50